Time;durP1;ratioP1;P1;durP2;ratioP2;P2;SDS_P1;SDS_P2;PMS_P1;PMS_P2;Temp;Humidity;BMP_temperature;BMP_pressure;BME280_temperature;BME280_humidity;BME280_pressure;Samples;Min_cycle;Max_cycle;Signal;HPM_P1;HPM_P2
2022/06/08 00:02:36;;;;;;;5.93;5.43;;;12.60;99.90;;;;;;5068116;28;20537;-75
2022/06/08 00:05:37;;;;;;;6.57;5.97;;;12.60;99.90;;;;;;5069712;28;20488;-74
2022/06/08 00:08:47;;;;;;;6.13;5.50;;;12.50;99.90;;;;;;5073555;28;20634;-73
2022/06/08 00:11:36;;;;;;;5.57;5.03;;;12.50;99.90;;;;;;5063020;28;20488;-77
2022/06/08 00:14:26;;;;;;;5.80;5.27;;;12.50;99.90;;;;;;5068329;28;20484;-77
2022/06/08 00:17:15;;;;;;;5.70;5.20;;;12.50;99.90;;;;;;5069162;28;21397;-79
2022/06/08 00:20:10;;;;;;;5.53;5.03;;;12.40;99.90;;;;;;5073433;28;20541;-79
2022/06/08 00:23:20;;;;;;;6.30;5.13;;;12.40;99.90;;;;;;5069367;28;20481;-75
2022/06/08 00:26:17;;;;;;;6.00;5.53;;;12.40;99.90;;;;;;5070823;28;20975;-77
2022/06/08 00:29:13;;;;;;;5.33;4.90;;;12.40;99.90;;;;;;5071191;28;21006;-76
2022/06/08 00:32:17;;;;;;;9.50;5.70;;;12.40;99.90;;;;;;5069805;28;20555;-75
2022/06/08 00:35:08;;;;;;;5.50;5.00;;;12.40;99.90;;;;;;5066686;28;20480;-75
2022/06/08 00:38:13;;;;;;;5.67;5.17;;;12.30;99.90;;;;;;5070769;28;20469;-75
2022/06/08 00:41:31;;;;;;;5.70;5.20;;;12.30;99.90;;;;;;5068812;28;20586;-75
2022/06/08 00:44:33;;;;;;;5.80;5.40;;;12.30;99.90;;;;;;5069264;28;20944;-75
2022/06/08 00:47:36;;;;;;;5.23;4.83;;;12.30;99.90;;;;;;5056040;28;20534;-79
2022/06/08 00:50:27;;;;;;;6.50;5.37;;;12.30;99.90;;;;;;5071150;28;20802;-75
2022/06/08 00:53:20;;;;;;;5.70;5.20;;;12.20;99.90;;;;;;5073041;28;20547;-76
2022/06/08 00:56:22;;;;;;;5.60;4.97;;;12.20;99.90;;;;;;5067886;28;20587;-75
2022/06/08 00:59:11;;;;;;;6.30;5.70;;;12.20;99.90;;;;;;5074940;28;20592;-75
2022/06/08 01:02:02;;;;;;;5.93;4.97;;;12.20;99.90;;;;;;5072796;28;20484;-78
2022/06/08 01:05:38;;;;;;;6.10;5.33;;;12.10;99.90;;;;;;5070804;28;20563;-74
2022/06/08 01:08:38;;;;;;;6.10;5.60;;;12.10;99.90;;;;;;5066259;28;21510;-78
2022/06/08 01:11:43;;;;;;;5.70;5.20;;;12.00;99.90;;;;;;5061820;28;20570;-75
2022/06/08 01:14:57;;;;;;;5.67;4.70;;;12.00;99.90;;;;;;5067594;28;20489;-75
2022/06/08 01:17:50;;;;;;;6.20;5.40;;;12.00;99.90;;;;;;5070054;28;20484;-74
2022/06/08 01:21:05;;;;;;;5.50;5.00;;;12.00;99.90;;;;;;5079017;28;20618;-74
2022/06/08 01:24:02;;;;;;;5.83;5.33;;;12.00;99.90;;;;;;5072410;28;20572;-74
2022/06/08 01:27:47;;;;;;;5.93;5.33;;;11.90;99.90;;;;;;5068785;28;20520;-75
2022/06/08 01:30:44;;;;;;;5.57;5.17;;;11.90;99.90;;;;;;5067962;28;20449;-74
2022/06/08 01:34:04;;;;;;;5.97;5.47;;;11.90;99.90;;;;;;5065085;28;20559;-78
2022/06/08 01:37:15;;;;;;;5.70;5.10;;;11.90;99.90;;;;;;5071683;28;20453;-77
2022/06/08 01:40:32;;;;;;;5.80;5.30;;;11.80;99.90;;;;;;5070817;28;20460;-74
2022/06/08 01:43:39;;;;;;;5.70;5.20;;;11.80;99.90;;;;;;5065586;28;20789;-73
2022/06/08 01:47:07;;;;;;;7.00;5.60;;;11.70;99.90;;;;;;5069032;28;20548;-76
2022/06/08 01:50:27;;;;;;;6.00;5.50;;;11.70;99.90;;;;;;5067892;28;20492;-76
2022/06/08 01:53:50;;;;;;;6.00;4.93;;;11.70;99.90;;;;;;5071457;28;20488;-76
2022/06/08 01:56:50;;;;;;;5.83;5.30;;;11.70;99.90;;;;;;5064644;28;20452;-76
2022/06/08 02:00:13;;;;;;;6.47;5.83;;;11.70;99.90;;;;;;5067331;28;20945;-75
2022/06/08 02:03:09;;;;;;;6.63;6.03;;;11.70;99.90;;;;;;5071211;28;20606;-77
2022/06/08 02:06:16;;;;;;;6.73;6.03;;;11.70;99.90;;;;;;5071593;28;20479;-76
2022/06/08 02:09:52;;;;;;;6.30;5.70;;;11.60;99.90;;;;;;4988762;28;21292;-75
2022/06/08 02:12:58;;;;;;;6.40;5.70;;;11.60;99.90;;;;;;4992493;28;20445;-76
2022/06/08 02:16:09;;;;;;;8.30;6.37;;;11.60;99.90;;;;;;4990440;28;20546;-75
2022/06/08 02:19:12;;;;;;;7.37;5.83;;;11.60;99.90;;;;;;4994580;28;20856;-75
2022/06/08 02:22:29;;;;;;;6.90;6.30;;;11.60;99.90;;;;;;4994477;28;20514;-75
2022/06/08 02:25:42;;;;;;;6.10;5.60;;;11.50;99.90;;;;;;4991867;28;20456;-77
2022/06/08 02:28:49;;;;;;;6.03;5.53;;;11.50;99.90;;;;;;4992365;28;20539;-75
2022/06/08 02:35:21;;;;;;;6.63;5.97;;;11.40;99.90;;;;;;5068906;28;20479;-75
2022/06/08 02:38:27;;;;;;;6.53;6.03;;;11.40;99.90;;;;;;5070621;28;20540;-78
2022/06/08 02:41:28;;;;;;;6.40;5.80;;;11.30;99.90;;;;;;5074912;28;20556;-75
2022/06/08 02:47:39;;;;;;;6.37;5.87;;;11.30;99.90;;;;;;5074496;28;20484;-75
2022/06/08 02:50:57;;;;;;;6.80;6.20;;;11.20;99.90;;;;;;5074022;28;20450;-75
2022/06/08 02:54:00;;;;;;;6.40;5.90;;;11.20;99.90;;;;;;5066991;28;20506;-75
2022/06/08 02:57:11;;;;;;;6.53;5.90;;;11.20;99.90;;;;;;5076917;28;20509;-75
2022/06/08 03:00:12;;;;;;;6.50;5.90;;;11.20;99.90;;;;;;5072934;28;20949;-74
2022/06/08 03:03:34;;;;;;;6.40;5.80;;;11.10;99.90;;;;;;5074736;28;20466;-76
2022/06/08 03:06:54;;;;;;;6.43;5.93;;;11.20;99.90;;;;;;5075252;28;20456;-73
2022/06/08 03:10:11;;;;;;;6.83;6.20;;;11.10;99.90;;;;;;5071582;28;20569;-75
2022/06/08 03:13:42;;;;;;;6.87;5.83;;;11.10;99.90;;;;;;5075741;28;20865;-75
2022/06/08 03:16:42;;;;;;;6.63;5.90;;;11.10;99.90;;;;;;5075436;28;20473;-73
2022/06/08 03:19:37;;;;;;;6.50;6.00;;;11.10;99.90;;;;;;5073370;28;20468;-73
2022/06/08 03:25:59;;;;;;;7.20;6.60;;;11.00;99.90;;;;;;5071122;28;20560;-74
2022/06/08 03:28:48;;;;;;;6.50;6.00;;;11.10;99.90;;;;;;5067682;28;20533;-77
2022/06/08 03:35:08;;;;;;;6.60;6.10;;;11.00;99.90;;;;;;5059527;28;20502;-73
2022/06/08 03:38:08;;;;;;;7.17;6.57;;;11.00;99.90;;;;;;5074887;28;20607;-74
2022/06/08 03:41:02;;;;;;;6.93;6.40;;;11.00;99.90;;;;;;5072807;28;21134;-73
2022/06/08 03:43:54;;;;;;;6.13;5.63;;;11.00;99.90;;;;;;5073771;28;20481;-73
2022/06/08 03:46:57;;;;;;;7.07;6.33;;;11.00;99.90;;;;;;5072702;28;20958;-77
2022/06/08 03:49:52;;;;;;;6.90;6.20;;;11.00;99.90;;;;;;5074892;28;20531;-74
2022/06/08 03:52:53;;;;;;;6.73;6.13;;;11.10;99.90;;;;;;5067090;28;20549;-74
2022/06/08 03:59:33;;;;;;;6.90;6.30;;;11.10;99.90;;;;;;5072668;28;20476;-75
2022/06/08 04:02:50;;;;;;;6.80;6.13;;;11.10;99.90;;;;;;5079287;28;20452;-77
2022/06/08 04:05:52;;;;;;;8.50;6.37;;;11.10;99.90;;;;;;5075245;28;20455;-76
2022/06/08 04:09:18;;;;;;;6.93;6.33;;;11.20;99.90;;;;;;5063671;28;20462;-75
2022/06/08 04:12:12;;;;;;;7.50;6.80;;;11.30;99.90;;;;;;5074540;28;20446;-74
2022/06/08 04:15:09;;;;;;;7.53;6.77;;;11.30;99.90;;;;;;5073667;28;20598;-76
2022/06/08 04:18:01;;;;;;;7.63;6.80;;;11.40;99.90;;;;;;5072806;28;20707;-75
2022/06/08 04:21:08;;;;;;;10.37;7.17;;;11.50;99.90;;;;;;5074539;28;20442;-76
2022/06/08 04:24:02;;;;;;;8.50;7.80;;;11.50;99.90;;;;;;5071667;28;20538;-75
2022/06/08 04:26:58;;;;;;;8.90;7.60;;;11.50;99.90;;;;;;5070912;28;20531;-75
2022/06/08 04:30:01;;;;;;;8.10;7.30;;;11.60;99.90;;;;;;5072869;28;20523;-73
2022/06/08 04:32:59;;;;;;;9.00;8.20;;;11.70;99.90;;;;;;5070667;28;20504;-78
2022/06/08 04:35:47;;;;;;;9.40;8.40;;;11.80;99.90;;;;;;5064883;28;20604;-74
2022/06/08 04:38:48;;;;;;;9.93;8.83;;;11.90;99.90;;;;;;5069811;28;20553;-76
2022/06/08 04:41:45;;;;;;;10.60;9.50;;;12.10;99.90;;;;;;5068311;28;20448;-73
2022/06/08 04:44:34;;;;;;;11.87;9.70;;;12.10;99.90;;;;;;5071084;28;20472;-74
2022/06/08 04:47:22;;;;;;;12.87;11.10;;;12.20;99.90;;;;;;5072783;28;20614;-73
2022/06/08 04:50:18;;;;;;;11.23;10.13;;;12.30;99.90;;;;;;5063756;28;20541;-74
2022/06/08 04:53:08;;;;;;;10.93;9.50;;;12.30;99.90;;;;;;5067903;28;20470;-76
2022/06/08 04:56:01;;;;;;;12.60;10.27;;;12.40;99.90;;;;;;5069250;28;21545;-74
2022/06/08 04:58:54;;;;;;;10.50;9.50;;;12.50;99.90;;;;;;5071164;28;21058;-74
2022/06/08 05:01:44;;;;;;;10.83;9.73;;;12.50;99.90;;;;;;5072143;28;20535;-78
2022/06/08 05:04:33;;;;;;;10.57;9.47;;;12.60;99.90;;;;;;5066699;28;20582;-73
2022/06/08 05:07:21;;;;;;;12.63;11.43;;;12.60;99.90;;;;;;5071298;28;21086;-75
2022/06/08 05:10:35;;;;;;;11.83;10.63;;;12.70;99.90;;;;;;5051327;28;20530;-75
2022/06/08 05:13:35;;;;;;;11.37;10.13;;;12.70;99.90;;;;;;5056671;28;20470;-74
2022/06/08 05:16:41;;;;;;;11.23;10.20;;;12.80;99.90;;;;;;5061796;28;20543;-74
2022/06/08 05:20:05;;;;;;;11.93;10.60;;;12.90;99.90;;;;;;5078501;28;20484;-74
2022/06/08 05:22:55;;;;;;;10.13;9.23;;;12.90;99.90;;;;;;5079697;28;20479;-75
2022/06/08 05:25:58;;;;;;;11.50;9.87;;;13.00;99.90;;;;;;5084259;28;20455;-74
2022/06/08 05:28:51;;;;;;;10.83;9.53;;;13.10;99.90;;;;;;5086999;28;20975;-77
2022/06/08 05:32:02;;;;;;;11.20;10.10;;;13.20;99.90;;;;;;5090582;28;20835;-76
2022/06/08 05:34:55;;;;;;;11.20;10.20;;;13.30;99.90;;;;;;5086086;28;20907;-74
2022/06/08 05:38:02;;;;;;;11.13;10.03;;;13.30;99.90;;;;;;5094127;28;20508;-75
2022/06/08 05:40:56;;;;;;;14.70;10.23;;;13.40;99.90;;;;;;5094135;28;20476;-77
2022/06/08 05:43:48;;;;;;;11.47;10.37;;;13.40;99.90;;;;;;5096117;28;20970;-75
2022/06/08 05:46:51;;;;;;;12.20;10.47;;;13.50;99.90;;;;;;5095535;28;20460;-74
2022/06/08 05:49:41;;;;;;;10.93;9.70;;;13.60;99.90;;;;;;5091520;28;20493;-77
2022/06/08 05:52:33;;;;;;;11.83;10.53;;;13.60;99.90;;;;;;5092590;28;20504;-74
2022/06/08 05:55:29;;;;;;;13.80;11.20;;;13.70;99.90;;;;;;5094593;28;20454;-75
2022/06/08 05:58:23;;;;;;;12.60;10.83;;;13.70;99.90;;;;;;5094360;28;20472;-75
2022/06/08 06:01:13;;;;;;;11.77;10.57;;;13.80;99.90;;;;;;5095745;28;20448;-77
2022/06/08 06:04:07;;;;;;;12.27;9.80;;;13.80;99.90;;;;;;5082433;28;20475;-75
2022/06/08 06:06:58;;;;;;;10.50;9.40;;;13.90;99.90;;;;;;5089751;28;20441;-75
2022/06/08 06:09:50;;;;;;;12.77;10.77;;;13.90;99.90;;;;;;5090032;28;20472;-78
2022/06/08 06:12:48;;;;;;;11.50;10.30;;;13.90;99.90;;;;;;5078664;28;20449;-75
2022/06/08 06:15:39;;;;;;;13.03;10.47;;;13.90;99.90;;;;;;5086678;28;20453;-76
2022/06/08 06:18:36;;;;;;;11.13;9.47;;;14.00;99.90;;;;;;5073258;28;20564;-74
2022/06/08 06:21:29;;;;;;;11.67;10.40;;;14.10;99.90;;;;;;5071197;28;20473;-74
2022/06/08 06:24:19;;;;;;;11.23;10.10;;;14.10;99.90;;;;;;5072288;28;20659;-75
2022/06/08 06:27:10;;;;;;;11.50;10.40;;;14.20;99.90;;;;;;5068288;28;20479;-76
2022/06/08 06:29:58;;;;;;;11.33;10.13;;;14.30;99.90;;;;;;5071166;28;20965;-74
2022/06/08 06:32:47;;;;;;;13.23;10.57;;;14.40;99.90;;;;;;5067490;28;20562;-78
2022/06/08 06:35:36;;;;;;;11.90;10.70;;;14.50;99.90;;;;;;5067736;28;20457;-76
2022/06/08 06:38:26;;;;;;;10.40;9.43;;;14.50;99.90;;;;;;5076097;28;20477;-74
2022/06/08 06:41:17;;;;;;;11.33;10.23;;;14.60;99.90;;;;;;5079093;28;20861;-74
2022/06/08 06:44:07;;;;;;;13.90;10.87;;;14.60;99.90;;;;;;5075898;28;20701;-74
2022/06/08 06:46:58;;;;;;;11.73;9.67;;;14.70;99.90;;;;;;5069599;28;20539;-77
2022/06/08 06:49:46;;;;;;;10.77;9.77;;;14.70;99.90;;;;;;5066281;28;20488;-75
2022/06/08 06:52:34;;;;;;;11.40;10.27;;;14.70;99.90;;;;;;5068265;28;20598;-74
2022/06/08 06:55:29;;;;;;;11.17;9.93;;;14.70;99.90;;;;;;5067986;28;20502;-74
2022/06/08 06:58:17;;;;;;;10.80;9.70;;;14.80;99.90;;;;;;5078639;28;20501;-75
2022/06/08 07:01:08;;;;;;;10.63;9.53;;;14.70;99.90;;;;;;5077219;28;20507;-75
2022/06/08 07:03:58;;;;;;;10.27;9.17;;;14.80;99.90;;;;;;5076109;28;20476;-74
2022/06/08 07:06:49;;;;;;;10.87;9.70;;;14.80;99.90;;;;;;5076700;28;20457;-74
2022/06/08 07:09:38;;;;;;;10.77;9.00;;;14.80;99.90;;;;;;5078584;28;20548;-74
2022/06/08 07:12:27;;;;;;;10.57;9.57;;;14.90;99.90;;;;;;5079213;28;20452;-74
2022/06/08 07:15:23;;;;;;;13.30;9.60;;;15.00;99.90;;;;;;5073929;28;20479;-76
2022/06/08 07:18:15;;;;;;;10.23;9.17;;;15.10;99.90;;;;;;5074293;28;20549;-76
2022/06/08 07:21:06;;;;;;;12.03;9.00;;;15.10;99.90;;;;;;5077092;28;20453;-74
2022/06/08 07:23:58;;;;;;;10.50;8.90;;;15.10;99.90;;;;;;5070016;28;20465;-75
2022/06/08 07:26:48;;;;;;;10.10;9.10;;;15.10;99.90;;;;;;5076274;28;20548;-74
2022/06/08 07:29:39;;;;;;;9.60;8.70;;;15.10;99.90;;;;;;5074515;28;20478;-75
2022/06/08 07:32:27;;;;;;;9.53;8.60;;;15.20;99.90;;;;;;5070334;28;20622;-75
2022/06/08 07:35:16;;;;;;;9.93;9.00;;;15.20;99.90;;;;;;5070914;28;20524;-75
2022/06/08 07:38:04;;;;;;;10.40;9.40;;;15.20;99.90;;;;;;5073920;28;20541;-75
2022/06/08 07:40:53;;;;;;;8.27;7.57;;;15.30;99.90;;;;;;5075510;28;20495;-75
2022/06/08 07:43:41;;;;;;;10.70;8.93;;;15.30;99.90;;;;;;5076409;28;20564;-75
2022/06/08 07:46:37;;;;;;;10.83;8.60;;;15.40;99.90;;;;;;5072293;28;20596;-76
2022/06/08 07:49:36;;;;;;;11.30;9.60;;;15.40;99.90;;;;;;5073974;28;20540;-75
2022/06/08 07:52:24;;;;;;;9.47;8.67;;;15.50;99.90;;;;;;5079091;28;20920;-80
2022/06/08 07:55:16;;;;;;;9.50;8.50;;;15.50;99.90;;;;;;5073746;28;20560;-77
2022/06/08 07:58:08;;;;;;;11.43;9.67;;;15.60;99.90;;;;;;5077009;28;20902;-78
2022/06/08 08:01:02;;;;;;;8.87;8.07;;;15.60;99.90;;;;;;5072280;28;20547;-75
2022/06/08 08:03:51;;;;;;;9.40;8.50;;;15.60;99.90;;;;;;5073928;28;20504;-76
2022/06/08 08:06:42;;;;;;;11.30;8.93;;;15.70;99.90;;;;;;5073367;28;20458;-75
2022/06/08 08:09:33;;;;;;;9.97;8.97;;;15.70;99.90;;;;;;5071726;28;20565;-75
2022/06/08 08:12:21;;;;;;;11.13;10.03;;;15.80;99.90;;;;;;5073397;28;20536;-75
2022/06/08 08:15:10;;;;;;;10.93;8.90;;;15.80;99.90;;;;;;5067724;28;20490;-75
2022/06/08 08:18:01;;;;;;;9.53;8.63;;;15.80;99.90;;;;;;5073823;28;21126;-73
2022/06/08 08:20:51;;;;;;;8.83;8.03;;;15.90;99.90;;;;;;5075278;28;20480;-75
2022/06/08 08:23:39;;;;;;;10.17;8.33;;;16.00;99.90;;;;;;5075281;28;20542;-77
2022/06/08 08:26:29;;;;;;;9.30;8.40;;;16.00;99.90;;;;;;5072655;28;21102;-75
2022/06/08 08:29:18;;;;;;;9.30;8.40;;;16.10;99.90;;;;;;5072776;28;21622;-77
2022/06/08 08:32:08;;;;;;;9.80;8.27;;;16.20;99.90;;;;;;5070880;28;20515;-75
2022/06/08 08:34:58;;;;;;;10.53;8.30;;;16.30;99.90;;;;;;5073030;28;20641;-75
2022/06/08 08:37:48;;;;;;;9.80;8.20;;;16.30;99.90;;;;;;5072138;28;20848;-74
2022/06/08 08:40:46;;;;;;;9.53;8.70;;;16.40;99.90;;;;;;5071778;28;20511;-74
2022/06/08 08:43:37;;;;;;;8.93;8.03;;;16.40;99.90;;;;;;5073472;28;20630;-74
2022/06/08 08:46:39;;;;;;;9.77;8.90;;;16.40;99.90;;;;;;5068992;28;20701;-75
2022/06/08 08:49:33;;;;;;;8.20;7.50;;;16.60;99.90;;;;;;5090179;28;20480;-74
2022/06/08 08:52:28;;;;;;;7.90;7.20;;;16.60;99.90;;;;;;5089513;28;21141;-74
2022/06/08 08:55:25;;;;;;;8.63;7.80;;;16.70;99.90;;;;;;5089085;28;20489;-73
2022/06/08 08:58:16;;;;;;;10.00;8.70;;;16.70;99.90;;;;;;5095577;28;20529;-75
2022/06/08 09:01:16;;;;;;;9.10;8.20;;;16.80;99.90;;;;;;5092240;28;20557;-74
2022/06/08 09:04:11;;;;;;;9.17;8.07;;;16.90;99.90;;;;;;5090752;28;20661;-74
2022/06/08 09:07:04;;;;;;;8.00;7.40;;;16.90;99.90;;;;;;5088098;28;20448;-73
2022/06/08 09:09:53;;;;;;;8.77;7.87;;;17.00;99.90;;;;;;5092636;28;20480;-74
2022/06/08 09:12:44;;;;;;;10.50;9.47;;;17.10;99.90;;;;;;5089157;28;20488;-74
2022/06/08 09:15:46;;;;;;;10.03;9.10;;;17.10;99.90;;;;;;5088868;28;20510;-74
2022/06/08 09:18:37;;;;;;;8.93;8.10;;;17.20;99.90;;;;;;5076186;28;20584;-74
2022/06/08 09:21:35;;;;;;;10.03;9.20;;;17.30;99.90;;;;;;5071374;28;20555;-74
2022/06/08 09:24:30;;;;;;;10.10;9.10;;;17.40;99.90;;;;;;5072478;28;21079;-74
2022/06/08 09:27:29;;;;;;;10.80;9.77;;;17.50;99.90;;;;;;5077012;28;21036;-74
2022/06/08 09:30:24;;;;;;;10.53;8.40;;;17.70;99.90;;;;;;5080253;28;20545;-75
2022/06/08 09:33:23;;;;;;;9.63;8.63;;;17.70;99.90;;;;;;5074993;28;20609;-74
2022/06/08 09:36:25;;;;;;;9.03;8.23;;;17.70;99.90;;;;;;5073568;28;20537;-75
2022/06/08 09:39:19;;;;;;;7.80;7.10;;;17.80;99.90;;;;;;5068632;28;20477;-74
2022/06/08 09:42:29;;;;;;;8.50;7.70;;;17.90;99.90;;;;;;5070751;28;20970;-74
2022/06/08 09:45:37;;;;;;;8.63;7.90;;;18.00;99.90;;;;;;5074709;28;20496;-76
2022/06/08 09:52:03;;;;;;;10.40;9.50;;;18.30;99.90;;;;;;5076621;28;20477;-75
2022/06/08 09:55:03;;;;;;;10.50;9.50;;;18.40;99.90;;;;;;5076668;28;20535;-75
2022/06/08 09:57:59;;;;;;;10.33;9.30;;;18.50;99.90;;;;;;5074908;28;21066;-75
2022/06/08 10:00:56;;;;;;;11.63;9.83;;;18.60;99.90;;;;;;5073947;28;20997;-80
2022/06/08 10:04:03;;;;;;;9.07;8.27;;;18.70;99.90;;;;;;5077698;28;20465;-77
2022/06/08 10:06:59;;;;;;;12.53;10.97;;;18.80;99.90;;;;;;5072855;28;20867;-75
2022/06/08 10:10:15;;;;;;;11.33;10.27;;;18.90;99.90;;;;;;5075938;28;20572;-77
2022/06/08 10:13:12;;;;;;;10.50;9.43;;;19.00;99.90;;;;;;5066298;28;20566;-79
2022/06/08 10:16:09;;;;;;;11.50;9.80;;;19.10;99.90;;;;;;5072734;28;20548;-76
2022/06/08 10:19:05;;;;;;;10.93;10.03;;;19.20;99.90;;;;;;5072982;28;20515;-75
2022/06/08 10:21:54;;;;;;;11.80;10.73;;;19.40;99.90;;;;;;5075291;28;20820;-80
2022/06/08 10:24:49;;;;;;;10.13;9.30;;;19.40;99.90;;;;;;5074181;28;20577;-77
2022/06/08 10:27:46;;;;;;;10.07;9.17;;;19.40;99.90;;;;;;5075004;28;20545;-75
2022/06/08 10:30:41;;;;;;;9.20;8.37;;;19.40;99.90;;;;;;5073177;28;20663;-75
2022/06/08 10:33:39;;;;;;;10.87;9.97;;;19.40;99.90;;;;;;5075316;28;21071;-75
2022/06/08 10:36:31;;;;;;;11.13;10.00;;;19.50;99.90;;;;;;5074816;28;20502;-73
2022/06/08 10:39:20;;;;;;;12.10;11.03;;;19.50;99.90;;;;;;5079228;28;20562;-73
2022/06/08 10:42:40;;;;;;;11.67;10.60;;;19.50;99.90;;;;;;5080551;28;20540;-75
2022/06/08 10:45:47;;;;;;;9.53;8.83;;;19.50;99.90;;;;;;5076452;28;20511;-73
2022/06/08 10:48:51;;;;;;;11.30;10.33;;;19.60;99.90;;;;;;5075762;28;20615;-74
2022/06/08 10:51:41;;;;;;;11.30;10.30;;;19.70;99.90;;;;;;5075067;28;21100;-74
2022/06/08 10:54:54;;;;;;;12.53;11.43;;;19.80;99.90;;;;;;5077271;28;20484;-74
2022/06/08 10:58:03;;;;;;;11.60;10.70;;;19.90;99.90;;;;;;5074461;28;21028;-75
2022/06/08 11:01:00;;;;;;;11.30;10.40;;;20.00;99.90;;;;;;5067749;28;20498;-74
2022/06/08 11:04:01;;;;;;;11.97;10.90;;;20.10;99.90;;;;;;5076189;28;20474;-76
2022/06/08 11:07:00;;;;;;;9.53;8.83;;;20.10;99.90;;;;;;5076567;28;20834;-75
2022/06/08 11:10:01;;;;;;;11.20;10.20;;;20.20;99.90;;;;;;5076456;28;20547;-74
2022/06/08 11:13:13;;;;;;;9.87;9.03;;;20.20;99.90;;;;;;5074704;28;20477;-75
2022/06/08 11:16:11;;;;;;;11.57;10.47;;;20.30;99.90;;;;;;5070764;28;20453;-74
2022/06/08 11:19:06;;;;;;;11.20;10.30;;;20.40;99.90;;;;;;5073101;28;20472;-76
2022/06/08 11:21:58;;;;;;;11.33;10.37;;;20.50;99.90;;;;;;5076345;28;20448;-73
2022/06/08 11:24:49;;;;;;;11.77;10.87;;;20.60;99.90;;;;;;5074642;28;20473;-73
2022/06/08 11:27:39;;;;;;;10.30;9.40;;;20.60;99.90;;;;;;5071068;28;20473;-79
2022/06/08 11:30:49;;;;;;;13.20;10.97;;;20.60;99.90;;;;;;5066431;28;20517;-75
2022/06/08 11:33:59;;;;;;;9.30;8.60;;;20.60;99.90;;;;;;5067394;28;21011;-75
2022/06/08 11:37:04;;;;;;;9.67;8.67;;;20.60;99.90;;;;;;5064524;28;20954;-74
2022/06/08 11:39:59;;;;;;;10.17;9.23;;;20.60;99.90;;;;;;5075334;28;20809;-74
2022/06/08 11:42:51;;;;;;;9.87;9.07;;;20.60;99.90;;;;;;5075070;28;20544;-78
2022/06/08 11:45:44;;;;;;;9.40;8.47;;;20.80;99.90;;;;;;5075433;28;20531;-76
2022/06/08 11:48:47;;;;;;;9.87;9.07;;;21.00;99.90;;;;;;5070381;28;20952;-73
2022/06/08 11:51:40;;;;;;;9.03;8.23;;;21.00;99.90;;;;;;5072303;28;20472;-75
2022/06/08 11:54:32;;;;;;;8.90;8.20;;;21.10;99.90;;;;;;5072282;28;20509;-77
2022/06/08 11:57:21;;;;;;;9.37;8.63;;;21.20;99.90;;;;;;5074155;28;20464;-75
2022/06/08 12:00:30;;;;;;;8.70;8.00;;;21.20;99.90;;;;;;5071634;28;20458;-75
2022/06/08 12:03:25;;;;;;;9.50;8.23;;;21.30;99.90;;;;;;5072911;28;20465;-77
2022/06/08 12:06:19;;;;;;;7.83;7.20;;;21.40;99.90;;;;;;5068808;28;20532;-76
2022/06/08 12:09:13;;;;;;;7.80;7.10;;;21.50;99.90;;;;;;5070555;28;21078;-78
2022/06/08 12:12:13;;;;;;;8.60;8.00;;;21.60;99.90;;;;;;5074465;28;20462;-78
2022/06/08 12:15:42;;;;;;;7.63;7.03;;;21.60;99.90;;;;;;5075229;28;20620;-75
2022/06/08 12:18:47;;;;;;;6.37;5.87;;;21.70;99.90;;;;;;5068834;28;20757;-76
2022/06/08 12:21:38;;;;;;;7.70;7.10;;;21.80;99.90;;;;;;5068792;28;20465;-75
2022/06/08 12:24:26;;;;;;;8.13;7.53;;;21.90;99.90;;;;;;5073186;28;20479;-74
2022/06/08 12:27:21;;;;;;;8.00;7.40;;;22.00;99.90;;;;;;5066424;28;20596;-77
2022/06/08 12:30:22;;;;;;;8.20;7.60;;;22.00;99.90;;;;;;5069048;28;20785;-76
2022/06/08 12:33:28;;;;;;;9.20;8.50;;;22.10;99.90;;;;;;5071198;28;20498;-76
2022/06/08 12:36:24;;;;;;;8.37;7.67;;;22.20;99.90;;;;;;5072887;28;20516;-77
2022/06/08 12:39:15;;;;;;;9.60;8.80;;;22.30;99.90;;;;;;5070428;28;20480;-75
2022/06/08 12:42:23;;;;;;;8.40;7.70;;;22.40;99.90;;;;;;5071839;28;20510;-76
2022/06/08 12:45:33;;;;;;;7.37;6.87;;;22.40;99.90;;;;;;5072718;28;20580;-74
2022/06/08 12:48:27;;;;;;;8.13;7.50;;;22.40;99.90;;;;;;5071214;28;20468;-75
2022/06/08 12:51:24;;;;;;;7.90;7.30;;;22.40;99.90;;;;;;5066055;28;20540;-74
2022/06/08 12:54:19;;;;;;;7.20;6.70;;;22.40;99.90;;;;;;5074008;28;20980;-74
2022/06/08 12:57:14;;;;;;;8.50;7.80;;;22.40;99.90;;;;;;5070856;28;20963;-72
2022/06/08 13:00:07;;;;;;;8.33;7.83;;;22.40;99.90;;;;;;5071271;28;20464;-73
2022/06/08 13:03:00;;;;;;;8.30;7.60;;;22.40;99.90;;;;;;5065995;28;21047;-76
2022/06/08 13:05:48;;;;;;;8.20;7.60;;;22.30;99.90;;;;;;5069334;28;20506;-76
2022/06/08 13:08:37;;;;;;;7.20;6.70;;;22.30;99.90;;;;;;5074043;28;20468;-74
2022/06/08 13:11:27;;;;;;;6.40;6.00;;;22.30;99.90;;;;;;5074760;28;20548;-79
2022/06/08 13:14:18;;;;;;;8.70;8.00;;;22.20;99.90;;;;;;5069443;28;20525;-75
2022/06/08 13:17:07;;;;;;;8.63;7.93;;;22.20;99.90;;;;;;5069955;28;20464;-77
2022/06/08 13:19:57;;;;;;;8.40;7.60;;;22.20;99.90;;;;;;5069879;28;20968;-75
2022/06/08 13:22:46;;;;;;;8.30;7.70;;;22.20;99.90;;;;;;5068180;28;20543;-76
2022/06/08 13:25:47;;;;;;;9.50;8.80;;;22.20;99.90;;;;;;5062371;28;20551;-75
2022/06/08 13:28:36;;;;;;;8.70;8.00;;;22.40;99.90;;;;;;5061679;28;20581;-76
2022/06/08 13:31:24;;;;;;;8.03;7.33;;;22.50;99.90;;;;;;5061025;28;20520;-77
2022/06/08 13:34:13;;;;;;;7.40;6.80;;;22.70;99.90;;;;;;5061766;28;20477;-75
2022/06/08 13:37:04;;;;;;;8.33;7.57;;;22.90;99.90;;;;;;5059052;28;21241;-80
2022/06/08 13:39:53;;;;;;;7.80;7.20;;;23.10;99.90;;;;;;5063684;28;20527;-77
2022/06/08 13:42:45;;;;;;;6.40;6.00;;;23.20;99.90;;;;;;5057074;28;21890;-79
2022/06/08 13:45:41;;;;;;;7.30;6.70;;;23.40;99.90;;;;;;5064138;28;20802;-75
2022/06/08 13:48:31;;;;;;;6.77;6.37;;;23.60;99.90;;;;;;5068601;28;20477;-75
2022/06/08 13:51:21;;;;;;;7.60;7.00;;;23.80;99.90;;;;;;5060763;28;21060;-75
2022/06/08 13:54:23;;;;;;;7.47;6.93;;;24.00;99.90;;;;;;5067129;28;20979;-75
2022/06/08 13:57:16;;;;;;;7.63;6.80;;;24.20;99.90;;;;;;5077973;28;20484;-74
2022/06/08 14:00:05;;;;;;;6.90;6.40;;;24.40;99.90;;;;;;5071062;28;20484;-75
2022/06/08 14:03:02;;;;;;;6.67;6.27;;;24.50;99.90;;;;;;5065613;28;20582;-76
2022/06/08 14:15:24;;;;;;;6.50;6.00;;;24.80;99.90;;;;;;5069597;28;20477;-75
2022/06/08 14:18:17;;;;;;;6.07;5.57;;;24.90;99.90;;;;;;5071456;28;21109;-75
2022/06/08 14:21:06;;;;;;;5.83;5.50;;;24.90;99.90;;;;;;5065119;28;20454;-75
2022/06/08 14:23:59;;;;;;;5.37;4.97;;;24.90;99.90;;;;;;5071933;28;20570;-73
2022/06/08 14:26:50;;;;;;;6.20;5.80;;;24.90;99.90;;;;;;5071648;28;20461;-75
2022/06/08 14:29:45;;;;;;;6.10;5.63;;;24.80;99.90;;;;;;5066879;28;20457;-75
2022/06/08 14:32:36;;;;;;;5.37;4.97;;;24.80;99.90;;;;;;5075352;28;20528;-74
2022/06/08 14:35:30;;;;;;;5.70;5.33;;;24.90;99.90;;;;;;5075066;28;20541;-77
2022/06/08 14:38:38;;;;;;;5.63;5.23;;;24.90;99.90;;;;;;5077550;28;20481;-75
2022/06/08 14:41:37;;;;;;;5.77;5.37;;;25.10;99.90;;;;;;5075250;28;20445;-75
2022/06/08 14:44:26;;;;;;;5.00;4.70;;;25.20;99.90;;;;;;5078303;28;21208;-75
2022/06/08 14:47:20;;;;;;;5.50;5.10;;;25.30;99.90;;;;;;5078986;28;20547;-75
2022/06/08 14:50:10;;;;;;;5.27;4.97;;;25.40;99.90;;;;;;5080425;28;20536;-75
2022/06/08 14:53:00;;;;;;;5.00;4.70;;;25.50;99.90;;;;;;5078864;28;20901;-74
2022/06/08 14:59:02;;;;;;;5.30;4.90;;;25.90;99.90;;;;;;5073161;28;20508;-74
2022/06/08 15:01:52;;;;;;;5.37;4.97;;;25.80;99.90;;;;;;5080882;28;20839;-74
2022/06/08 15:04:42;;;;;;;6.00;5.60;;;25.80;99.90;;;;;;5079194;28;20838;-74
2022/06/08 15:07:31;;;;;;;5.97;5.47;;;25.80;99.90;;;;;;5076225;28;20999;-75
2022/06/08 15:10:20;;;;;;;6.03;5.63;;;25.70;99.90;;;;;;5078404;28;20448;-74
2022/06/08 15:13:09;;;;;;;5.17;4.77;;;25.60;99.90;;;;;;5077588;28;20526;-74
2022/06/08 15:16:00;;;;;;;5.00;4.70;;;25.60;99.90;;;;;;5077204;28;20575;-74
2022/06/08 15:18:49;;;;;;;5.97;5.57;;;25.60;99.90;;;;;;5080239;28;20483;-75
2022/06/08 15:21:38;;;;;;;5.93;5.43;;;25.60;99.90;;;;;;5075972;28;20540;-74
2022/06/08 15:24:31;;;;;;;6.17;5.67;;;25.60;99.90;;;;;;5074656;28;20550;-74
2022/06/08 15:27:24;;;;;;;5.83;5.43;;;25.50;99.90;;;;;;5075349;28;20614;-74
2022/06/08 15:30:20;;;;;;;5.80;5.40;;;25.40;99.90;;;;;;5078142;28;20598;-74
2022/06/08 15:33:11;;;;;;;5.40;5.00;;;25.30;99.90;;;;;;5072858;28;20470;-74
2022/06/08 15:36:04;;;;;;;5.60;5.20;;;25.20;99.90;;;;;;5078757;28;20564;-74
2022/06/08 15:38:56;;;;;;;5.97;5.47;;;25.20;99.90;;;;;;5077141;28;20572;-75
2022/06/08 15:41:46;;;;;;;5.70;5.20;;;25.10;99.90;;;;;;5076456;28;20459;-77
2022/06/08 15:44:34;;;;;;;5.43;5.03;;;25.00;99.90;;;;;;5079116;28;20469;-74
2022/06/08 15:47:29;;;;;;;5.80;5.40;;;25.10;99.90;;;;;;5076787;28;20497;-74
2022/06/08 15:50:21;;;;;;;6.10;5.60;;;25.10;99.90;;;;;;5075925;28;20481;-74